aviador You're here:

KSPA Decoded Metar

SPARTANBURG VOR in SC, USA
Report Time2017-05-26 12:55:00
UTC Time2017-05-26 13:07:50
Flight Rules vfr VFR
Wind270° at 06 kt
W.Decomp.*RWY 23: 4.2 kt HW 4.2 kt RCW
W.Rank270° ranks 18
Current wind is above 270° avg. (5.5)
Visibility9999 m
Phenomena:N/A
Clouds:N/A
Expected CloudBase > 2,400 ft AGL from Temp-Dew spread
CeilingNone
Temp17°C (ISA +4)
Dew Point11°C (68% RH)
AAT15.2°C
QNH1016 hPa
Density Alt1,539 ft
Elevation994 ft
Report Wrong Elevation
Raw Report
KSPA 261255Z AUTO 27006KT 10SM CLR 17/11 A3000 RMK AO2=

Extra information for KSPA:More info

Metar Taf Metar & Taf Last 4 Metars F.Rules Stats Wind Profile Meteogram Temp Stats Airport Information Weather charts Add Link Nearby VenuesMetar ALERT Operation Metar Decoded Social comments

AIRNAV info for KSPA